sensor_id;sensor_type;location;lat;lon;timestamp;P1;durP1;ratioP1;P2;durP2;ratioP2
11303;SDS011;5707;49.588;12.148;2023-04-24T00:01:39;0.70;;;0.70;;
11303;SDS011;5707;49.588;12.148;2023-04-24T00:04:05;0.47;;;0.47;;
11303;SDS011;5707;49.588;12.148;2023-04-24T00:06:32;0.65;;;0.65;;
11303;SDS011;5707;49.588;12.148;2023-04-24T00:09:01;0.82;;;0.77;;
11303;SDS011;5707;49.588;12.148;2023-04-24T00:11:28;0.82;;;0.73;;
11303;SDS011;5707;49.588;12.148;2023-04-24T00:13:54;1.00;;;0.80;;
11303;SDS011;5707;49.588;12.148;2023-04-24T00:16:21;1.30;;;0.50;;
11303;SDS011;5707;49.588;12.148;2023-04-24T00:18:46;1.38;;;0.70;;
11303;SDS011;5707;49.588;12.148;2023-04-24T00:21:13;3.55;;;0.60;;
11303;SDS011;5707;49.588;12.148;2023-04-24T00:23:39;0.50;;;0.50;;
11303;SDS011;5707;49.588;12.148;2023-04-24T00:26:05;0.85;;;0.85;;
11303;SDS011;5707;49.588;12.148;2023-04-24T00:28:30;1.65;;;0.52;;
11303;SDS011;5707;49.588;12.148;2023-04-24T00:30:56;0.65;;;0.60;;
11303;SDS011;5707;49.588;12.148;2023-04-24T00:33:22;1.55;;;0.80;;
11303;SDS011;5707;49.588;12.148;2023-04-24T00:35:47;0.60;;;0.60;;
11303;SDS011;5707;49.588;12.148;2023-04-24T00:38:13;0.80;;;0.70;;
11303;SDS011;5707;49.588;12.148;2023-04-24T00:40:38;0.70;;;0.70;;
11303;SDS011;5707;49.588;12.148;2023-04-24T00:43:04;0.80;;;0.80;;
11303;SDS011;5707;49.588;12.148;2023-04-24T00:45:30;1.77;;;0.85;;
11303;SDS011;5707;49.588;12.148;2023-04-24T00:47:56;0.65;;;0.65;;
11303;SDS011;5707;49.588;12.148;2023-04-24T00:50:23;0.60;;;0.45;;
11303;SDS011;5707;49.588;12.148;2023-04-24T00:52:50;2.75;;;0.68;;
11303;SDS011;5707;49.588;12.148;2023-04-24T00:55:16;0.80;;;0.80;;
11303;SDS011;5707;49.588;12.148;2023-04-24T00:57:42;0.75;;;0.65;;
11303;SDS011;5707;49.588;12.148;2023-04-24T01:00:09;0.90;;;0.90;;
11303;SDS011;5707;49.588;12.148;2023-04-24T01:02:39;0.82;;;0.80;;
11303;SDS011;5707;49.588;12.148;2023-04-24T01:05:08;0.90;;;0.90;;
11303;SDS011;5707;49.588;12.148;2023-04-24T01:07:34;0.93;;;0.93;;
11303;SDS011;5707;49.588;12.148;2023-04-24T01:10:00;0.98;;;0.95;;
11303;SDS011;5707;49.588;12.148;2023-04-24T01:12:26;3.00;;;0.82;;
11303;SDS011;5707;49.588;12.148;2023-04-24T01:14:51;0.90;;;0.80;;
11303;SDS011;5707;49.588;12.148;2023-04-24T01:17:17;2.60;;;0.85;;
11303;SDS011;5707;49.588;12.148;2023-04-24T01:19:43;0.85;;;0.63;;
11303;SDS011;5707;49.588;12.148;2023-04-24T01:22:14;0.93;;;0.93;;
11303;SDS011;5707;49.588;12.148;2023-04-24T01:24:41;0.70;;;0.70;;
11303;SDS011;5707;49.588;12.148;2023-04-24T01:27:07;1.00;;;0.90;;
11303;SDS011;5707;49.588;12.148;2023-04-24T01:29:34;0.75;;;0.75;;
11303;SDS011;5707;49.588;12.148;2023-04-24T01:32:00;1.00;;;1.00;;
11303;SDS011;5707;49.588;12.148;2023-04-24T01:34:25;1.00;;;0.82;;
11303;SDS011;5707;49.588;12.148;2023-04-24T01:36:51;1.00;;;0.90;;
11303;SDS011;5707;49.588;12.148;2023-04-24T01:39:17;1.00;;;0.88;;
11303;SDS011;5707;49.588;12.148;2023-04-24T01:41:43;2.00;;;1.00;;
11303;SDS011;5707;49.588;12.148;2023-04-24T01:44:08;0.70;;;0.70;;
11303;SDS011;5707;49.588;12.148;2023-04-24T01:46:34;0.75;;;0.75;;
11303;SDS011;5707;49.588;12.148;2023-04-24T01:49:00;0.80;;;0.73;;
11303;SDS011;5707;49.588;12.148;2023-04-24T01:51:27;1.00;;;1.00;;
11303;SDS011;5707;49.588;12.148;2023-04-24T01:53:52;3.42;;;1.20;;
11303;SDS011;5707;49.588;12.148;2023-04-24T01:56:19;1.05;;;1.00;;
11303;SDS011;5707;49.588;12.148;2023-04-24T01:58:46;0.70;;;0.70;;
11303;SDS011;5707;49.588;12.148;2023-04-24T02:01:21;1.85;;;1.08;;
11303;SDS011;5707;49.588;12.148;2023-04-24T02:03:49;2.05;;;1.17;;
11303;SDS011;5707;49.588;12.148;2023-04-24T02:06:14;1.25;;;1.13;;
11303;SDS011;5707;49.588;12.148;2023-04-24T02:08:40;1.90;;;1.17;;
11303;SDS011;5707;49.588;12.148;2023-04-24T02:11:05;1.10;;;1.10;;
11303;SDS011;5707;49.588;12.148;2023-04-24T02:13:31;1.77;;;1.58;;
11303;SDS011;5707;49.588;12.148;2023-04-24T02:15:58;1.60;;;1.50;;
11303;SDS011;5707;49.588;12.148;2023-04-24T02:18:23;1.60;;;1.50;;
11303;SDS011;5707;49.588;12.148;2023-04-24T02:20:49;2.55;;;1.40;;
11303;SDS011;5707;49.588;12.148;2023-04-24T02:23:15;1.25;;;1.15;;
11303;SDS011;5707;49.588;12.148;2023-04-24T02:25:40;2.25;;;1.52;;
11303;SDS011;5707;49.588;12.148;2023-04-24T02:28:06;1.48;;;1.02;;
11303;SDS011;5707;49.588;12.148;2023-04-24T02:30:31;1.00;;;1.00;;
11303;SDS011;5707;49.588;12.148;2023-04-24T02:32:57;1.33;;;1.20;;
11303;SDS011;5707;49.588;12.148;2023-04-24T02:35:23;1.60;;;1.50;;
11303;SDS011;5707;49.588;12.148;2023-04-24T02:37:48;1.65;;;1.55;;
11303;SDS011;5707;49.588;12.148;2023-04-24T02:40:14;1.50;;;1.40;;
11303;SDS011;5707;49.588;12.148;2023-04-24T02:42:39;2.03;;;1.52;;
11303;SDS011;5707;49.588;12.148;2023-04-24T02:45:05;1.52;;;1.42;;
11303;SDS011;5707;49.588;12.148;2023-04-24T02:47:31;2.40;;;1.60;;
11303;SDS011;5707;49.588;12.148;2023-04-24T02:49:57;1.35;;;1.30;;
11303;SDS011;5707;49.588;12.148;2023-04-24T02:52:22;1.40;;;1.30;;
11303;SDS011;5707;49.588;12.148;2023-04-24T02:54:48;1.17;;;1.08;;
11303;SDS011;5707;49.588;12.148;2023-04-24T02:57:13;1.40;;;1.20;;
11303;SDS011;5707;49.588;12.148;2023-04-24T02:59:39;2.17;;;1.58;;
11303;SDS011;5707;49.588;12.148;2023-04-24T03:02:05;1.60;;;1.50;;
11303;SDS011;5707;49.588;12.148;2023-04-24T03:04:31;1.50;;;1.40;;
11303;SDS011;5707;49.588;12.148;2023-04-24T03:06:57;1.80;;;1.40;;
11303;SDS011;5707;49.588;12.148;2023-04-24T03:09:22;1.95;;;1.42;;
11303;SDS011;5707;49.588;12.148;2023-04-24T03:11:48;2.80;;;1.50;;
11303;SDS011;5707;49.588;12.148;2023-04-24T03:14:14;2.45;;;1.30;;
11303;SDS011;5707;49.588;12.148;2023-04-24T03:16:40;1.95;;;1.63;;
11303;SDS011;5707;49.588;12.148;2023-04-24T03:19:06;1.35;;;1.25;;
11303;SDS011;5707;49.588;12.148;2023-04-24T03:21:31;1.75;;;1.55;;
11303;SDS011;5707;49.588;12.148;2023-04-24T03:23:57;1.13;;;1.10;;
11303;SDS011;5707;49.588;12.148;2023-04-24T03:26:23;1.60;;;1.50;;
11303;SDS011;5707;49.588;12.148;2023-04-24T03:28:48;1.40;;;1.30;;
11303;SDS011;5707;49.588;12.148;2023-04-24T03:31:14;1.40;;;1.30;;
11303;SDS011;5707;49.588;12.148;2023-04-24T03:33:40;1.33;;;1.23;;
11303;SDS011;5707;49.588;12.148;2023-04-24T03:36:06;1.45;;;1.15;;
11303;SDS011;5707;49.588;12.148;2023-04-24T03:38:31;3.17;;;1.83;;
11303;SDS011;5707;49.588;12.148;2023-04-24T03:40:57;1.15;;;1.10;;
11303;SDS011;5707;49.588;12.148;2023-04-24T03:43:23;1.40;;;1.30;;
11303;SDS011;5707;49.588;12.148;2023-04-24T03:45:48;4.20;;;1.40;;
11303;SDS011;5707;49.588;12.148;2023-04-24T03:48:14;1.33;;;1.25;;
11303;SDS011;5707;49.588;12.148;2023-04-24T03:50:39;1.30;;;1.20;;
11303;SDS011;5707;49.588;12.148;2023-04-24T03:53:05;1.80;;;1.10;;
11303;SDS011;5707;49.588;12.148;2023-04-24T03:55:30;1.38;;;1.27;;
11303;SDS011;5707;49.588;12.148;2023-04-24T03:57:56;1.42;;;1.20;;
11303;SDS011;5707;49.588;12.148;2023-04-24T04:00:21;2.85;;;1.17;;
11303;SDS011;5707;49.588;12.148;2023-04-24T04:02:47;2.13;;;1.92;;
11303;SDS011;5707;49.588;12.148;2023-04-24T04:05:13;1.33;;;1.23;;
11303;SDS011;5707;49.588;12.148;2023-04-24T04:07:38;2.95;;;1.00;;
11303;SDS011;5707;49.588;12.148;2023-04-24T04:10:04;1.58;;;1.48;;
11303;SDS011;5707;49.588;12.148;2023-04-24T04:12:31;1.23;;;1.13;;
11303;SDS011;5707;49.588;12.148;2023-04-24T04:14:57;1.48;;;1.38;;
11303;SDS011;5707;49.588;12.148;2023-04-24T04:17:23;1.35;;;1.25;;
11303;SDS011;5707;49.588;12.148;2023-04-24T04:19:48;1.63;;;1.00;;
11303;SDS011;5707;49.588;12.148;2023-04-24T04:22:14;1.50;;;1.40;;
11303;SDS011;5707;49.588;12.148;2023-04-24T04:24:40;3.33;;;1.15;;
11303;SDS011;5707;49.588;12.148;2023-04-24T04:27:05;3.53;;;1.55;;
11303;SDS011;5707;49.588;12.148;2023-04-24T04:29:31;1.30;;;1.30;;
11303;SDS011;5707;49.588;12.148;2023-04-24T04:31:58;3.03;;;1.35;;
11303;SDS011;5707;49.588;12.148;2023-04-24T04:34:23;1.70;;;1.60;;
11303;SDS011;5707;49.588;12.148;2023-04-24T04:36:49;1.60;;;1.48;;
11303;SDS011;5707;49.588;12.148;2023-04-24T04:39:15;2.55;;;1.77;;
11303;SDS011;5707;49.588;12.148;2023-04-24T04:41:41;2.38;;;2.17;;
11303;SDS011;5707;49.588;12.148;2023-04-24T04:44:07;1.80;;;1.70;;
11303;SDS011;5707;49.588;12.148;2023-04-24T04:46:33;2.50;;;1.33;;
11303;SDS011;5707;49.588;12.148;2023-04-24T04:49:00;3.00;;;1.40;;
11303;SDS011;5707;49.588;12.148;2023-04-24T04:51:26;1.30;;;1.20;;
11303;SDS011;5707;49.588;12.148;2023-04-24T04:53:52;1.30;;;1.20;;
11303;SDS011;5707;49.588;12.148;2023-04-24T04:56:17;1.35;;;1.30;;
11303;SDS011;5707;49.588;12.148;2023-04-24T04:58:43;1.30;;;1.02;;
11303;SDS011;5707;49.588;12.148;2023-04-24T05:01:09;1.08;;;1.08;;
11303;SDS011;5707;49.588;12.148;2023-04-24T05:03:34;1.42;;;1.33;;
11303;SDS011;5707;49.588;12.148;2023-04-24T05:06:00;1.48;;;1.35;;
11303;SDS011;5707;49.588;12.148;2023-04-24T05:08:27;1.48;;;1.38;;
11303;SDS011;5707;49.588;12.148;2023-04-24T05:10:52;2.45;;;1.40;;
11303;SDS011;5707;49.588;12.148;2023-04-24T05:13:18;2.80;;;1.25;;
11303;SDS011;5707;49.588;12.148;2023-04-24T05:15:44;1.30;;;1.20;;
11303;SDS011;5707;49.588;12.148;2023-04-24T05:18:10;1.70;;;1.20;;
11303;SDS011;5707;49.588;12.148;2023-04-24T05:20:36;2.83;;;1.20;;
11303;SDS011;5707;49.588;12.148;2023-04-24T05:23:01;1.20;;;1.10;;
11303;SDS011;5707;49.588;12.148;2023-04-24T05:25:27;1.60;;;1.50;;
11303;SDS011;5707;49.588;12.148;2023-04-24T05:27:52;1.20;;;1.20;;
11303;SDS011;5707;49.588;12.148;2023-04-24T05:30:18;3.05;;;1.70;;
11303;SDS011;5707;49.588;12.148;2023-04-24T05:32:44;1.35;;;1.25;;
11303;SDS011;5707;49.588;12.148;2023-04-24T05:35:10;1.42;;;1.10;;
11303;SDS011;5707;49.588;12.148;2023-04-24T05:37:36;1.48;;;1.38;;
11303;SDS011;5707;49.588;12.148;2023-04-24T05:40:02;1.20;;;1.10;;
11303;SDS011;5707;49.588;12.148;2023-04-24T05:42:29;1.50;;;1.25;;
11303;SDS011;5707;49.588;12.148;2023-04-24T05:44:55;1.13;;;1.13;;
11303;SDS011;5707;49.588;12.148;2023-04-24T05:47:21;1.63;;;1.30;;
11303;SDS011;5707;49.588;12.148;2023-04-24T05:49:49;1.83;;;1.00;;
11303;SDS011;5707;49.588;12.148;2023-04-24T05:52:14;1.77;;;1.30;;
11303;SDS011;5707;49.588;12.148;2023-04-24T05:54:40;2.47;;;1.00;;
11303;SDS011;5707;49.588;12.148;2023-04-24T05:57:05;1.38;;;1.27;;
11303;SDS011;5707;49.588;12.148;2023-04-24T05:59:38;1.15;;;1.15;;
11303;SDS011;5707;49.588;12.148;2023-04-24T06:02:04;1.52;;;1.42;;
11303;SDS011;5707;49.588;12.148;2023-04-24T06:04:30;1.45;;;1.40;;
11303;SDS011;5707;49.588;12.148;2023-04-24T06:06:56;1.42;;;1.33;;
11303;SDS011;5707;49.588;12.148;2023-04-24T06:09:22;1.23;;;1.13;;
11303;SDS011;5707;49.588;12.148;2023-04-24T06:11:48;3.92;;;1.42;;
11303;SDS011;5707;49.588;12.148;2023-04-24T06:14:14;2.40;;;1.52;;
11303;SDS011;5707;49.588;12.148;2023-04-24T06:16:41;1.25;;;1.15;;
11303;SDS011;5707;49.588;12.148;2023-04-24T06:19:07;4.53;;;1.40;;
11303;SDS011;5707;49.588;12.148;2023-04-24T06:21:33;1.80;;;1.58;;
11303;SDS011;5707;49.588;12.148;2023-04-24T06:23:58;1.10;;;1.10;;
11303;SDS011;5707;49.588;12.148;2023-04-24T06:26:24;1.60;;;1.50;;
11303;SDS011;5707;49.588;12.148;2023-04-24T06:28:51;1.58;;;1.45;;
11303;SDS011;5707;49.588;12.148;2023-04-24T06:31:18;1.77;;;1.67;;
11303;SDS011;5707;49.588;12.148;2023-04-24T06:33:44;1.67;;;1.58;;
11303;SDS011;5707;49.588;12.148;2023-04-24T06:36:10;1.77;;;1.48;;
11303;SDS011;5707;49.588;12.148;2023-04-24T06:38:36;1.40;;;1.30;;
11303;SDS011;5707;49.588;12.148;2023-04-24T06:41:02;1.80;;;1.70;;
11303;SDS011;5707;49.588;12.148;2023-04-24T06:43:31;1.65;;;1.40;;
11303;SDS011;5707;49.588;12.148;2023-04-24T06:45:57;2.75;;;1.50;;
11303;SDS011;5707;49.588;12.148;2023-04-24T06:48:23;2.30;;;1.98;;
11303;SDS011;5707;49.588;12.148;2023-04-24T06:50:50;1.58;;;1.48;;
11303;SDS011;5707;49.588;12.148;2023-04-24T06:53:15;1.40;;;1.30;;
11303;SDS011;5707;49.588;12.148;2023-04-24T06:55:41;1.40;;;1.30;;
11303;SDS011;5707;49.588;12.148;2023-04-24T06:58:08;2.55;;;1.23;;
11303;SDS011;5707;49.588;12.148;2023-04-24T07:00:34;1.67;;;1.58;;
11303;SDS011;5707;49.588;12.148;2023-04-24T07:02:59;1.35;;;1.20;;
11303;SDS011;5707;49.588;12.148;2023-04-24T07:05:25;3.70;;;1.38;;
11303;SDS011;5707;49.588;12.148;2023-04-24T07:07:50;1.88;;;1.77;;
11303;SDS011;5707;49.588;12.148;2023-04-24T07:10:16;1.63;;;1.52;;
11303;SDS011;5707;49.588;12.148;2023-04-24T07:12:43;1.52;;;1.42;;
11303;SDS011;5707;49.588;12.148;2023-04-24T07:15:08;2.40;;;1.50;;
11303;SDS011;5707;49.588;12.148;2023-04-24T07:17:34;1.50;;;1.42;;
11303;SDS011;5707;49.588;12.148;2023-04-24T07:20:00;1.50;;;1.10;;
11303;SDS011;5707;49.588;12.148;2023-04-24T07:22:26;1.27;;;1.10;;
11303;SDS011;5707;49.588;12.148;2023-04-24T07:24:51;2.22;;;1.10;;
11303;SDS011;5707;49.588;12.148;2023-04-24T07:27:17;1.05;;;1.02;;
11303;SDS011;5707;49.588;12.148;2023-04-24T07:29:42;0.60;;;0.60;;
11303;SDS011;5707;49.588;12.148;2023-04-24T07:32:08;0.70;;;0.70;;
11303;SDS011;5707;49.588;12.148;2023-04-24T07:34:34;0.80;;;0.70;;
11303;SDS011;5707;49.588;12.148;2023-04-24T07:36:59;0.98;;;0.73;;
11303;SDS011;5707;49.588;12.148;2023-04-24T07:39:25;1.30;;;0.60;;
11303;SDS011;5707;49.588;12.148;2023-04-24T07:41:51;2.28;;;0.88;;
11303;SDS011;5707;49.588;12.148;2023-04-24T07:44:17;0.90;;;0.90;;
11303;SDS011;5707;49.588;12.148;2023-04-24T07:46:42;0.85;;;0.80;;
11303;SDS011;5707;49.588;12.148;2023-04-24T07:49:08;1.10;;;0.70;;
11303;SDS011;5707;49.588;12.148;2023-04-24T07:51:33;1.40;;;0.60;;
11303;SDS011;5707;49.588;12.148;2023-04-24T07:54:03;0.80;;;0.73;;
11303;SDS011;5707;49.588;12.148;2023-04-24T07:56:31;1.58;;;1.08;;
11303;SDS011;5707;49.588;12.148;2023-04-24T07:58:56;1.70;;;0.93;;
11303;SDS011;5707;49.588;12.148;2023-04-24T08:01:22;1.48;;;0.60;;
11303;SDS011;5707;49.588;12.148;2023-04-24T08:03:47;0.68;;;0.68;;
11303;SDS011;5707;49.588;12.148;2023-04-24T08:06:13;4.07;;;0.80;;
11303;SDS011;5707;49.588;12.148;2023-04-24T08:08:39;0.50;;;0.30;;
11303;SDS011;5707;49.588;12.148;2023-04-24T08:11:04;1.55;;;0.80;;
11303;SDS011;5707;49.588;12.148;2023-04-24T08:13:30;2.15;;;0.70;;
11303;SDS011;5707;49.588;12.148;2023-04-24T08:15:56;0.20;;;0.20;;
11303;SDS011;5707;49.588;12.148;2023-04-24T08:18:21;0.60;;;0.40;;
11303;SDS011;5707;49.588;12.148;2023-04-24T08:20:47;0.40;;;0.30;;
11303;SDS011;5707;49.588;12.148;2023-04-24T08:23:13;1.10;;;0.43;;
11303;SDS011;5707;49.588;12.148;2023-04-24T08:25:38;0.43;;;0.40;;
11303;SDS011;5707;49.588;12.148;2023-04-24T08:28:05;0.20;;;0.20;;
11303;SDS011;5707;49.588;12.148;2023-04-24T08:30:33;0.38;;;0.30;;
11303;SDS011;5707;49.588;12.148;2023-04-24T08:32:59;0.30;;;0.30;;
11303;SDS011;5707;49.588;12.148;2023-04-24T08:35:24;0.40;;;0.40;;
11303;SDS011;5707;49.588;12.148;2023-04-24T08:37:51;0.30;;;0.30;;
11303;SDS011;5707;49.588;12.148;2023-04-24T08:40:18;0.75;;;0.45;;
11303;SDS011;5707;49.588;12.148;2023-04-24T08:42:47;0.30;;;0.30;;
11303;SDS011;5707;49.588;12.148;2023-04-24T08:45:14;0.55;;;0.38;;
11303;SDS011;5707;49.588;12.148;2023-04-24T08:47:40;0.47;;;0.40;;
11303;SDS011;5707;49.588;12.148;2023-04-24T08:50:07;0.40;;;0.40;;
11303;SDS011;5707;49.588;12.148;2023-04-24T08:52:34;0.88;;;0.47;;
11303;SDS011;5707;49.588;12.148;2023-04-24T08:55:00;0.50;;;0.50;;
11303;SDS011;5707;49.588;12.148;2023-04-24T08:57:27;0.30;;;0.30;;
11303;SDS011;5707;49.588;12.148;2023-04-24T08:59:53;0.40;;;0.40;;
11303;SDS011;5707;49.588;12.148;2023-04-24T09:02:20;0.70;;;0.50;;
11303;SDS011;5707;49.588;12.148;2023-04-24T09:04:46;0.73;;;0.47;;
11303;SDS011;5707;49.588;12.148;2023-04-24T09:07:12;0.73;;;0.40;;
11303;SDS011;5707;49.588;12.148;2023-04-24T09:09:40;0.57;;;0.40;;
11303;SDS011;5707;49.588;12.148;2023-04-24T09:12:06;0.40;;;0.32;;
11303;SDS011;5707;49.588;12.148;2023-04-24T09:14:34;0.40;;;0.40;;
11303;SDS011;5707;49.588;12.148;2023-04-24T09:17:01;0.93;;;0.52;;
11303;SDS011;5707;49.588;12.148;2023-04-24T09:19:27;0.80;;;0.68;;
11303;SDS011;5707;49.588;12.148;2023-04-24T09:21:52;1.52;;;0.52;;
11303;SDS011;5707;49.588;12.148;2023-04-24T09:24:20;0.28;;;0.20;;
11303;SDS011;5707;49.588;12.148;2023-04-24T09:26:55;1.73;;;0.73;;
11303;SDS011;5707;49.588;12.148;2023-04-24T09:29:23;0.43;;;0.43;;
11303;SDS011;5707;49.588;12.148;2023-04-24T09:31:49;0.30;;;0.30;;
11303;SDS011;5707;49.588;12.148;2023-04-24T09:34:19;1.05;;;0.50;;
11303;SDS011;5707;49.588;12.148;2023-04-24T09:36:50;1.08;;;0.40;;
11303;SDS011;5707;49.588;12.148;2023-04-24T09:39:16;0.85;;;0.60;;
11303;SDS011;5707;49.588;12.148;2023-04-24T09:41:43;2.03;;;0.70;;
11303;SDS011;5707;49.588;12.148;2023-04-24T09:44:20;0.98;;;0.68;;
11303;SDS011;5707;49.588;12.148;2023-04-24T09:46:51;0.70;;;0.50;;
11303;SDS011;5707;49.588;12.148;2023-04-24T09:49:22;0.65;;;0.65;;
11303;SDS011;5707;49.588;12.148;2023-04-24T09:52:02;0.90;;;0.57;;
11303;SDS011;5707;49.588;12.148;2023-04-24T09:54:31;1.00;;;0.80;;
11303;SDS011;5707;49.588;12.148;2023-04-24T09:56:58;0.57;;;0.50;;
11303;SDS011;5707;49.588;12.148;2023-04-24T09:59:25;0.50;;;0.50;;
11303;SDS011;5707;49.588;12.148;2023-04-24T10:01:50;1.52;;;0.60;;
11303;SDS011;5707;49.588;12.148;2023-04-24T10:04:21;0.60;;;0.60;;
11303;SDS011;5707;49.588;12.148;2023-04-24T10:06:49;0.50;;;0.50;;
11303;SDS011;5707;49.588;12.148;2023-04-24T10:09:19;0.55;;;0.55;;
11303;SDS011;5707;49.588;12.148;2023-04-24T10:11:48;1.35;;;0.73;;
11303;SDS011;5707;49.588;12.148;2023-04-24T10:14:15;1.17;;;0.80;;
11303;SDS011;5707;49.588;12.148;2023-04-24T10:16:43;1.10;;;0.57;;
11303;SDS011;5707;49.588;12.148;2023-04-24T10:19:11;1.40;;;0.45;;
11303;SDS011;5707;49.588;12.148;2023-04-24T10:21:38;2.10;;;0.75;;
11303;SDS011;5707;49.588;12.148;2023-04-24T10:24:07;1.33;;;0.60;;
11303;SDS011;5707;49.588;12.148;2023-04-24T10:26:34;1.45;;;0.60;;
11303;SDS011;5707;49.588;12.148;2023-04-24T10:29:00;0.40;;;0.40;;
11303;SDS011;5707;49.588;12.148;2023-04-24T10:31:26;1.65;;;0.50;;
11303;SDS011;5707;49.588;12.148;2023-04-24T10:33:55;0.73;;;0.45;;
11303;SDS011;5707;49.588;12.148;2023-04-24T10:36:23;0.55;;;0.50;;
11303;SDS011;5707;49.588;12.148;2023-04-24T10:38:51;0.85;;;0.50;;
11303;SDS011;5707;49.588;12.148;2023-04-24T10:41:19;1.20;;;0.68;;
11303;SDS011;5707;49.588;12.148;2023-04-24T10:43:48;1.00;;;0.47;;
11303;SDS011;5707;49.588;12.148;2023-04-24T10:46:28;0.93;;;0.55;;
11303;SDS011;5707;49.588;12.148;2023-04-24T10:48:55;1.13;;;0.63;;
11303;SDS011;5707;49.588;12.148;2023-04-24T10:51:22;0.63;;;0.63;;
11303;SDS011;5707;49.588;12.148;2023-04-24T10:53:51;1.00;;;0.52;;
11303;SDS011;5707;49.588;12.148;2023-04-24T10:56:17;0.50;;;0.50;;
11303;SDS011;5707;49.588;12.148;2023-04-24T10:58:44;0.80;;;0.80;;
11303;SDS011;5707;49.588;12.148;2023-04-24T11:03:51;1.48;;;0.70;;
11303;SDS011;5707;49.588;12.148;2023-04-24T11:06:28;0.60;;;0.60;;
11303;SDS011;5707;49.588;12.148;2023-04-24T11:09:01;0.73;;;0.50;;
11303;SDS011;5707;49.588;12.148;2023-04-24T11:11:31;0.90;;;0.50;;
11303;SDS011;5707;49.588;12.148;2023-04-24T11:18:51;0.52;;;0.52;;
11303;SDS011;5707;49.588;12.148;2023-04-24T11:21:24;2.80;;;0.70;;
11303;SDS011;5707;49.588;12.148;2023-04-24T11:23:51;1.60;;;0.63;;
11303;SDS011;5707;49.588;12.148;2023-04-24T11:26:17;1.20;;;0.70;;
11303;SDS011;5707;49.588;12.148;2023-04-24T11:28:49;0.80;;;0.80;;
11303;SDS011;5707;49.588;12.148;2023-04-24T11:34:10;0.68;;;0.68;;
11303;SDS011;5707;49.588;12.148;2023-04-24T11:36:38;3.83;;;0.98;;
11303;SDS011;5707;49.588;12.148;2023-04-24T11:39:05;0.70;;;0.70;;
11303;SDS011;5707;49.588;12.148;2023-04-24T11:41:31;1.13;;;0.68;;
11303;SDS011;5707;49.588;12.148;2023-04-24T11:43:58;0.43;;;0.43;;
11303;SDS011;5707;49.588;12.148;2023-04-24T11:46:26;0.52;;;0.52;;
11303;SDS011;5707;49.588;12.148;2023-04-24T11:48:53;0.50;;;0.50;;
11303;SDS011;5707;49.588;12.148;2023-04-24T11:51:19;0.85;;;0.57;;
11303;SDS011;5707;49.588;12.148;2023-04-24T11:53:45;0.77;;;0.50;;
11303;SDS011;5707;49.588;12.148;2023-04-24T11:56:10;0.50;;;0.50;;
11303;SDS011;5707;49.588;12.148;2023-04-24T11:58:37;3.65;;;0.68;;
11303;SDS011;5707;49.588;12.148;2023-04-24T12:01:04;1.05;;;0.55;;
11303;SDS011;5707;49.588;12.148;2023-04-24T12:03:30;1.17;;;0.60;;
11303;SDS011;5707;49.588;12.148;2023-04-24T12:06:14;0.47;;;0.47;;
11303;SDS011;5707;49.588;12.148;2023-04-24T12:08:40;3.05;;;0.70;;
11303;SDS011;5707;49.588;12.148;2023-04-24T12:11:06;1.52;;;0.60;;
11303;SDS011;5707;49.588;12.148;2023-04-24T12:13:33;1.05;;;0.52;;
11303;SDS011;5707;49.588;12.148;2023-04-24T12:16:01;0.98;;;0.55;;
11303;SDS011;5707;49.588;12.148;2023-04-24T12:18:28;0.50;;;0.50;;
11303;SDS011;5707;49.588;12.148;2023-04-24T12:20:53;2.10;;;0.57;;
11303;SDS011;5707;49.588;12.148;2023-04-24T12:23:34;1.60;;;0.52;;
11303;SDS011;5707;49.588;12.148;2023-04-24T12:26:03;0.40;;;0.40;;
11303;SDS011;5707;49.588;12.148;2023-04-24T12:28:34;1.58;;;0.52;;
11303;SDS011;5707;49.588;12.148;2023-04-24T12:31:01;1.13;;;0.50;;
11303;SDS011;5707;49.588;12.148;2023-04-24T12:33:27;1.05;;;0.60;;
11303;SDS011;5707;49.588;12.148;2023-04-24T12:35:57;0.55;;;0.50;;
11303;SDS011;5707;49.588;12.148;2023-04-24T12:38:23;1.45;;;0.40;;
11303;SDS011;5707;49.588;12.148;2023-04-24T12:41:10;1.13;;;0.80;;
11303;SDS011;5707;49.588;12.148;2023-04-24T12:43:37;0.47;;;0.40;;
11303;SDS011;5707;49.588;12.148;2023-04-24T12:46:03;0.50;;;0.50;;
11303;SDS011;5707;49.588;12.148;2023-04-24T12:48:29;1.65;;;0.45;;
11303;SDS011;5707;49.588;12.148;2023-04-24T12:50:59;0.85;;;0.50;;
11303;SDS011;5707;49.588;12.148;2023-04-24T12:53:28;0.50;;;0.50;;
11303;SDS011;5707;49.588;12.148;2023-04-24T12:55:55;1.27;;;0.60;;
11303;SDS011;5707;49.588;12.148;2023-04-24T12:58:21;0.45;;;0.40;;
11303;SDS011;5707;49.588;12.148;2023-04-24T13:00:47;1.00;;;0.40;;
11303;SDS011;5707;49.588;12.148;2023-04-24T13:03:13;0.35;;;0.35;;
11303;SDS011;5707;49.588;12.148;2023-04-24T13:05:38;0.45;;;0.40;;
11303;SDS011;5707;49.588;12.148;2023-04-24T13:08:04;0.47;;;0.47;;
11303;SDS011;5707;49.588;12.148;2023-04-24T13:10:30;0.40;;;0.40;;
11303;SDS011;5707;49.588;12.148;2023-04-24T13:12:56;0.40;;;0.40;;
11303;SDS011;5707;49.588;12.148;2023-04-24T13:15:22;0.70;;;0.63;;
11303;SDS011;5707;49.588;12.148;2023-04-24T13:17:48;0.63;;;0.50;;
11303;SDS011;5707;49.588;12.148;2023-04-24T13:20:13;0.47;;;0.47;;
11303;SDS011;5707;49.588;12.148;2023-04-24T13:22:39;0.60;;;0.45;;
11303;SDS011;5707;49.588;12.148;2023-04-24T13:25:05;0.50;;;0.50;;
11303;SDS011;5707;49.588;12.148;2023-04-24T13:27:31;0.60;;;0.60;;
11303;SDS011;5707;49.588;12.148;2023-04-24T13:29:56;0.55;;;0.50;;
11303;SDS011;5707;49.588;12.148;2023-04-24T13:32:23;0.65;;;0.40;;
11303;SDS011;5707;49.588;12.148;2023-04-24T13:34:48;0.70;;;0.70;;
11303;SDS011;5707;49.588;12.148;2023-04-24T13:37:14;0.45;;;0.45;;
11303;SDS011;5707;49.588;12.148;2023-04-24T13:39:40;0.40;;;0.40;;
11303;SDS011;5707;49.588;12.148;2023-04-24T13:42:06;0.82;;;0.60;;
11303;SDS011;5707;49.588;12.148;2023-04-24T13:44:31;0.60;;;0.60;;
11303;SDS011;5707;49.588;12.148;2023-04-24T13:46:57;0.60;;;0.60;;
11303;SDS011;5707;49.588;12.148;2023-04-24T13:49:23;0.52;;;0.50;;
11303;SDS011;5707;49.588;12.148;2023-04-24T13:51:50;0.50;;;0.50;;
11303;SDS011;5707;49.588;12.148;2023-04-24T13:54:16;0.68;;;0.50;;
11303;SDS011;5707;49.588;12.148;2023-04-24T13:56:42;0.40;;;0.40;;
11303;SDS011;5707;49.588;12.148;2023-04-24T13:59:07;1.45;;;0.50;;
11303;SDS011;5707;49.588;12.148;2023-04-24T14:01:33;0.90;;;0.60;;
11303;SDS011;5707;49.588;12.148;2023-04-24T14:03:59;0.60;;;0.50;;
11303;SDS011;5707;49.588;12.148;2023-04-24T14:06:25;1.08;;;0.70;;
11303;SDS011;5707;49.588;12.148;2023-04-24T14:08:51;0.88;;;0.68;;
11303;SDS011;5707;49.588;12.148;2023-04-24T14:11:17;1.60;;;0.90;;
11303;SDS011;5707;49.588;12.148;2023-04-24T14:13:43;1.55;;;0.55;;
11303;SDS011;5707;49.588;12.148;2023-04-24T14:16:10;1.33;;;0.80;;
11303;SDS011;5707;49.588;12.148;2023-04-24T14:18:35;0.65;;;0.50;;
11303;SDS011;5707;49.588;12.148;2023-04-24T14:21:01;0.63;;;0.63;;
11303;SDS011;5707;49.588;12.148;2023-04-24T14:23:28;0.50;;;0.50;;
11303;SDS011;5707;49.588;12.148;2023-04-24T14:25:53;1.10;;;1.00;;
11303;SDS011;5707;49.588;12.148;2023-04-24T14:28:19;0.60;;;0.60;;
11303;SDS011;5707;49.588;12.148;2023-04-24T14:30:46;1.40;;;1.23;;
11303;SDS011;5707;49.588;12.148;2023-04-24T14:33:12;0.90;;;0.90;;
11303;SDS011;5707;49.588;12.148;2023-04-24T14:35:38;1.23;;;0.90;;
11303;SDS011;5707;49.588;12.148;2023-04-24T14:38:07;0.57;;;0.57;;
11303;SDS011;5707;49.588;12.148;2023-04-24T14:40:33;1.13;;;0.88;;
11303;SDS011;5707;49.588;12.148;2023-04-24T14:42:59;1.15;;;0.75;;
11303;SDS011;5707;49.588;12.148;2023-04-24T14:45:25;0.70;;;0.70;;
11303;SDS011;5707;49.588;12.148;2023-04-24T14:47:52;0.90;;;0.60;;
11303;SDS011;5707;49.588;12.148;2023-04-24T14:50:17;0.50;;;0.50;;
11303;SDS011;5707;49.588;12.148;2023-04-24T14:52:43;0.75;;;0.75;;
11303;SDS011;5707;49.588;12.148;2023-04-24T14:55:09;0.40;;;0.40;;